sensor_id;sensor_type;location;lat;lon;timestamp;temperature;humidity
14095;DHT22;18096;48.142;16.290;2022-09-03T00:01:28;14.30;76.00
14095;DHT22;18096;48.142;16.290;2022-09-03T00:04:02;14.20;75.70
14095;DHT22;18096;48.142;16.290;2022-09-03T00:06:35;14.10;75.70
14095;DHT22;18096;48.142;16.290;2022-09-03T00:12:09;14.00;76.10
14095;DHT22;18096;48.142;16.290;2022-09-03T00:15:05;14.00;76.10
14095;DHT22;18096;48.142;16.290;2022-09-03T00:17:36;14.00;76.10
14095;DHT22;18096;48.142;16.290;2022-09-03T00:20:07;13.90;76.30
14095;DHT22;18096;48.142;16.290;2022-09-03T00:22:41;13.90;76.60
14095;DHT22;18096;48.142;16.290;2022-09-03T00:25:12;13.90;76.60
14095;DHT22;18096;48.142;16.290;2022-09-03T00:27:40;13.90;76.50
14095;DHT22;18096;48.142;16.290;2022-09-03T00:30:10;13.90;76.40
14095;DHT22;18096;48.142;16.290;2022-09-03T00:32:41;13.90;76.40
14095;DHT22;18096;48.142;16.290;2022-09-03T00:35:15;13.80;76.30
14095;DHT22;18096;48.142;16.290;2022-09-03T00:37:43;13.80;76.70
14095;DHT22;18096;48.142;16.290;2022-09-03T00:40:26;13.70;76.80
14095;DHT22;18096;48.142;16.290;2022-09-03T00:43:17;13.70;77.00
14095;DHT22;18096;48.142;16.290;2022-09-03T01:08:08;13.40;78.00
14095;DHT22;18096;48.142;16.290;2022-09-03T01:13:34;13.30;78.30
14095;DHT22;18096;48.142;16.290;2022-09-03T01:16:27;13.30;78.50
14095;DHT22;18096;48.142;16.290;2022-09-03T01:30:11;13.20;78.70
14095;DHT22;18096;48.142;16.290;2022-09-03T01:36:27;13.20;78.90
14095;DHT22;18096;48.142;16.290;2022-09-03T01:38:50;13.20;78.90
14095;DHT22;18096;48.142;16.290;2022-09-03T01:53:16;13.20;79.00
14095;DHT22;18096;48.142;16.290;2022-09-03T01:55:46;13.20;79.20
14095;DHT22;18096;48.142;16.290;2022-09-03T01:58:29;13.20;79.30
14095;DHT22;18096;48.142;16.290;2022-09-03T02:01:04;13.20;79.50
14095;DHT22;18096;48.142;16.290;2022-09-03T02:03:38;13.10;79.50
14095;DHT22;18096;48.142;16.290;2022-09-03T02:06:06;13.10;79.70
14095;DHT22;18096;48.142;16.290;2022-09-03T02:08:32;13.10;79.80
14095;DHT22;18096;48.142;16.290;2022-09-03T02:10:58;13.10;79.70
14095;DHT22;18096;48.142;16.290;2022-09-03T02:13:41;13.10;79.60
14095;DHT22;18096;48.142;16.290;2022-09-03T02:16:18;13.10;79.50
14095;DHT22;18096;48.142;16.290;2022-09-03T02:18:49;13.10;79.50
14095;DHT22;18096;48.142;16.290;2022-09-03T02:21:17;13.10;79.80
14095;DHT22;18096;48.142;16.290;2022-09-03T02:23:45;13.10;79.80
14095;DHT22;18096;48.142;16.290;2022-09-03T02:26:12;13.10;79.60
14095;DHT22;18096;48.142;16.290;2022-09-03T02:28:40;13.10;79.60
14095;DHT22;18096;48.142;16.290;2022-09-03T02:31:06;13.10;79.80
14095;DHT22;18096;48.142;16.290;2022-09-03T02:33:36;13.10;80.10
14095;DHT22;18096;48.142;16.290;2022-09-03T02:36:05;13.10;79.90
14095;DHT22;18096;48.142;16.290;2022-09-03T02:38:31;13.20;80.00
14095;DHT22;18096;48.142;16.290;2022-09-03T02:40:57;13.20;80.10
14095;DHT22;18096;48.142;16.290;2022-09-03T02:43:26;13.20;79.70
14095;DHT22;18096;48.142;16.290;2022-09-03T02:45:58;13.20;79.80
14095;DHT22;18096;48.142;16.290;2022-09-03T02:48:26;13.20;79.50
14095;DHT22;18096;48.142;16.290;2022-09-03T02:50:52;13.20;79.80
14095;DHT22;18096;48.142;16.290;2022-09-03T02:53:18;13.20;79.80
14095;DHT22;18096;48.142;16.290;2022-09-03T02:55:43;13.20;79.90
14095;DHT22;18096;48.142;16.290;2022-09-03T02:58:09;13.20;79.70
14095;DHT22;18096;48.142;16.290;2022-09-03T03:00:35;13.20;79.70
14095;DHT22;18096;48.142;16.290;2022-09-03T03:03:03;13.20;79.60
14095;DHT22;18096;48.142;16.290;2022-09-03T03:05:43;13.20;79.10
14095;DHT22;18096;48.142;16.290;2022-09-03T03:08:10;13.20;79.10
14095;DHT22;18096;48.142;16.290;2022-09-03T03:10:36;13.20;79.40
14095;DHT22;18096;48.142;16.290;2022-09-03T03:13:03;13.20;79.60
14095;DHT22;18096;48.142;16.290;2022-09-03T03:15:28;13.20;79.70
14095;DHT22;18096;48.142;16.290;2022-09-03T03:17:57;13.20;79.60
14095;DHT22;18096;48.142;16.290;2022-09-03T03:20:23;13.20;79.60
14095;DHT22;18096;48.142;16.290;2022-09-03T03:22:48;13.20;79.70
14095;DHT22;18096;48.142;16.290;2022-09-03T03:25:15;13.10;79.70
14095;DHT22;18096;48.142;16.290;2022-09-03T03:27:41;13.10;79.70
14095;DHT22;18096;48.142;16.290;2022-09-03T03:30:08;13.10;79.60
14095;DHT22;18096;48.142;16.290;2022-09-03T03:32:35;13.10;79.90
14095;DHT22;18096;48.142;16.290;2022-09-03T03:35:01;13.10;79.90
14095;DHT22;18096;48.142;16.290;2022-09-03T03:37:29;13.10;79.80
14095;DHT22;18096;48.142;16.290;2022-09-03T03:39:54;13.10;80.60
14095;DHT22;18096;48.142;16.290;2022-09-03T03:42:20;13.20;80.80
14095;DHT22;18096;48.142;16.290;2022-09-03T03:44:45;13.30;80.00
14095;DHT22;18096;48.142;16.290;2022-09-03T03:47:11;13.30;79.50
14095;DHT22;18096;48.142;16.290;2022-09-03T03:49:37;13.20;79.40
14095;DHT22;18096;48.142;16.290;2022-09-03T03:52:03;13.20;79.60
14095;DHT22;18096;48.142;16.290;2022-09-03T03:54:29;13.10;79.80
14095;DHT22;18096;48.142;16.290;2022-09-03T03:56:55;13.10;79.90
14095;DHT22;18096;48.142;16.290;2022-09-03T03:59:21;13.10;79.70
14095;DHT22;18096;48.142;16.290;2022-09-03T04:01:47;13.10;79.70
14095;DHT22;18096;48.142;16.290;2022-09-03T04:04:15;13.10;79.80
14095;DHT22;18096;48.142;16.290;2022-09-03T04:06:40;13.00;79.80
14095;DHT22;18096;48.142;16.290;2022-09-03T04:09:06;13.00;80.00
14095;DHT22;18096;48.142;16.290;2022-09-03T04:11:32;13.00;79.90
14095;DHT22;18096;48.142;16.290;2022-09-03T04:13:57;13.00;79.90
14095;DHT22;18096;48.142;16.290;2022-09-03T04:16:25;12.90;80.00
14095;DHT22;18096;48.142;16.290;2022-09-03T04:18:52;12.90;80.30
14095;DHT22;18096;48.142;16.290;2022-09-03T04:21:21;12.80;80.20
14095;DHT22;18096;48.142;16.290;2022-09-03T04:23:49;12.80;80.20
14095;DHT22;18096;48.142;16.290;2022-09-03T04:26:19;12.80;80.50
14095;DHT22;18096;48.142;16.290;2022-09-03T04:28:45;12.80;80.60
14095;DHT22;18096;48.142;16.290;2022-09-03T04:31:13;12.80;80.80
14095;DHT22;18096;48.142;16.290;2022-09-03T04:33:39;12.70;80.80
14095;DHT22;18096;48.142;16.290;2022-09-03T04:36:06;12.70;80.90
14095;DHT22;18096;48.142;16.290;2022-09-03T04:38:35;12.70;81.30
14095;DHT22;18096;48.142;16.290;2022-09-03T04:41:00;12.80;81.20
14095;DHT22;18096;48.142;16.290;2022-09-03T04:43:27;12.80;81.20
14095;DHT22;18096;48.142;16.290;2022-09-03T04:46:01;12.80;81.20
14095;DHT22;18096;48.142;16.290;2022-09-03T04:48:27;12.80;81.30
14095;DHT22;18096;48.142;16.290;2022-09-03T04:50:54;12.80;81.30
14095;DHT22;18096;48.142;16.290;2022-09-03T04:53:20;12.80;81.60
14095;DHT22;18096;48.142;16.290;2022-09-03T04:55:47;12.80;81.40
14095;DHT22;18096;48.142;16.290;2022-09-03T04:58:12;12.90;81.50
14095;DHT22;18096;48.142;16.290;2022-09-03T05:00:38;12.90;81.70
14095;DHT22;18096;48.142;16.290;2022-09-03T05:03:04;12.90;81.50
14095;DHT22;18096;48.142;16.290;2022-09-03T05:05:30;12.90;81.30
14095;DHT22;18096;48.142;16.290;2022-09-03T05:07:58;13.00;81.30
14095;DHT22;18096;48.142;16.290;2022-09-03T05:10:26;13.00;81.50
14095;DHT22;18096;48.142;16.290;2022-09-03T05:13:04;13.00;81.30
14095;DHT22;18096;48.142;16.290;2022-09-03T05:15:31;13.10;81.10
14095;DHT22;18096;48.142;16.290;2022-09-03T05:18:01;13.10;80.90
14095;DHT22;18096;48.142;16.290;2022-09-03T05:20:28;13.20;81.10
14095;DHT22;18096;48.142;16.290;2022-09-03T05:22:55;13.30;80.90
14095;DHT22;18096;48.142;16.290;2022-09-03T05:25:22;13.40;81.00
14095;DHT22;18096;48.142;16.290;2022-09-03T05:27:48;13.40;80.80
14095;DHT22;18096;48.142;16.290;2022-09-03T05:30:14;13.50;80.70
14095;DHT22;18096;48.142;16.290;2022-09-03T05:32:39;13.50;80.50
14095;DHT22;18096;48.142;16.290;2022-09-03T05:35:06;13.60;80.30
14095;DHT22;18096;48.142;16.290;2022-09-03T05:37:32;13.70;80.30
14095;DHT22;18096;48.142;16.290;2022-09-03T05:39:58;13.80;80.40
14095;DHT22;18096;48.142;16.290;2022-09-03T05:42:24;13.80;80.00
14095;DHT22;18096;48.142;16.290;2022-09-03T05:44:50;13.80;79.60
14095;DHT22;18096;48.142;16.290;2022-09-03T05:47:15;13.90;80.10
14095;DHT22;18096;48.142;16.290;2022-09-03T05:49:41;14.00;79.30
14095;DHT22;18096;48.142;16.290;2022-09-03T05:52:07;14.00;79.00
14095;DHT22;18096;48.142;16.290;2022-09-03T05:54:34;14.00;78.60
14095;DHT22;18096;48.142;16.290;2022-09-03T05:57:00;14.10;78.60
14095;DHT22;18096;48.142;16.290;2022-09-03T05:59:26;14.10;78.60
14095;DHT22;18096;48.142;16.290;2022-09-03T06:01:52;14.10;78.50
14095;DHT22;18096;48.142;16.290;2022-09-03T06:04:18;14.20;78.60
14095;DHT22;18096;48.142;16.290;2022-09-03T06:06:46;14.20;78.50
14095;DHT22;18096;48.142;16.290;2022-09-03T06:09:19;14.30;78.40
14095;DHT22;18096;48.142;16.290;2022-09-03T06:11:46;14.30;78.30
14095;DHT22;18096;48.142;16.290;2022-09-03T06:14:14;14.40;78.20
14095;DHT22;18096;48.142;16.290;2022-09-03T06:16:43;14.40;78.10
14095;DHT22;18096;48.142;16.290;2022-09-03T06:19:09;14.50;78.30
14095;DHT22;18096;48.142;16.290;2022-09-03T06:21:43;14.50;78.00
14095;DHT22;18096;48.142;16.290;2022-09-03T06:24:10;14.60;77.80
14095;DHT22;18096;48.142;16.290;2022-09-03T06:26:36;14.60;77.90
14095;DHT22;18096;48.142;16.290;2022-09-03T06:29:03;14.70;77.60
14095;DHT22;18096;48.142;16.290;2022-09-03T06:31:28;14.70;77.70
14095;DHT22;18096;48.142;16.290;2022-09-03T06:33:54;14.70;77.70
14095;DHT22;18096;48.142;16.290;2022-09-03T06:36:21;14.70;77.60
14095;DHT22;18096;48.142;16.290;2022-09-03T06:38:50;14.80;77.50
14095;DHT22;18096;48.142;16.290;2022-09-03T06:41:18;14.80;77.20
14095;DHT22;18096;48.142;16.290;2022-09-03T06:43:46;14.80;77.30
14095;DHT22;18096;48.142;16.290;2022-09-03T06:46:14;14.80;77.20
14095;DHT22;18096;48.142;16.290;2022-09-03T06:48:41;14.80;77.10
14095;DHT22;18096;48.142;16.290;2022-09-03T06:51:09;14.90;77.10
14095;DHT22;18096;48.142;16.290;2022-09-03T06:53:37;14.90;77.70
14095;DHT22;18096;48.142;16.290;2022-09-03T06:56:06;14.90;77.00
14095;DHT22;18096;48.142;16.290;2022-09-03T06:58:35;15.00;77.00
14095;DHT22;18096;48.142;16.290;2022-09-03T07:01:18;15.00;76.90
14095;DHT22;18096;48.142;16.290;2022-09-03T07:03:45;15.10;76.60
14095;DHT22;18096;48.142;16.290;2022-09-03T07:06:13;15.10;76.70
14095;DHT22;18096;48.142;16.290;2022-09-03T07:08:39;15.20;77.00
14095;DHT22;18096;48.142;16.290;2022-09-03T07:11:09;15.20;76.60
14095;DHT22;18096;48.142;16.290;2022-09-03T07:13:40;15.20;76.50
14095;DHT22;18096;48.142;16.290;2022-09-03T07:16:11;15.30;76.50
14095;DHT22;18096;48.142;16.290;2022-09-03T07:18:38;15.30;76.30
14095;DHT22;18096;48.142;16.290;2022-09-03T07:21:08;15.30;76.30
14095;DHT22;18096;48.142;16.290;2022-09-03T07:23:35;15.40;76.20
14095;DHT22;18096;48.142;16.290;2022-09-03T07:26:09;15.40;76.20
14095;DHT22;18096;48.142;16.290;2022-09-03T07:28:37;15.50;76.00
14095;DHT22;18096;48.142;16.290;2022-09-03T07:31:08;15.60;76.10
14095;DHT22;18096;48.142;16.290;2022-09-03T07:33:36;15.70;75.70
14095;DHT22;18096;48.142;16.290;2022-09-03T07:36:05;15.70;75.40
14095;DHT22;18096;48.142;16.290;2022-09-03T07:38:34;15.70;75.20
14095;DHT22;18096;48.142;16.290;2022-09-03T07:41:02;15.80;75.20
14095;DHT22;18096;48.142;16.290;2022-09-03T07:43:32;15.90;75.40
14095;DHT22;18096;48.142;16.290;2022-09-03T07:45:58;15.90;75.10
14095;DHT22;18096;48.142;16.290;2022-09-03T07:48:25;16.00;75.40
14095;DHT22;18096;48.142;16.290;2022-09-03T07:50:51;16.00;75.50
14095;DHT22;18096;48.142;16.290;2022-09-03T07:53:19;16.10;75.50
14095;DHT22;18096;48.142;16.290;2022-09-03T07:55:46;16.20;75.70
14095;DHT22;18096;48.142;16.290;2022-09-03T07:58:12;16.30;75.40
14095;DHT22;18096;48.142;16.290;2022-09-03T08:00:39;16.40;75.70
14095;DHT22;18096;48.142;16.290;2022-09-03T08:03:05;16.40;75.80
14095;DHT22;18096;48.142;16.290;2022-09-03T08:05:34;16.50;76.10
14095;DHT22;18096;48.142;16.290;2022-09-03T08:08:01;16.60;76.50
14095;DHT22;18096;48.142;16.290;2022-09-03T08:10:27;16.70;76.90
14095;DHT22;18096;48.142;16.290;2022-09-03T08:12:56;16.70;76.20
14095;DHT22;18096;48.142;16.290;2022-09-03T08:15:22;16.80;76.00
14095;DHT22;18096;48.142;16.290;2022-09-03T08:17:47;16.90;76.00
14095;DHT22;18096;48.142;16.290;2022-09-03T08:20:14;16.90;76.10
14095;DHT22;18096;48.142;16.290;2022-09-03T08:22:40;17.00;76.00
14095;DHT22;18096;48.142;16.290;2022-09-03T08:25:06;17.10;75.50
14095;DHT22;18096;48.142;16.290;2022-09-03T08:27:32;17.10;75.20
14095;DHT22;18096;48.142;16.290;2022-09-03T08:29:57;17.20;75.30
14095;DHT22;18096;48.142;16.290;2022-09-03T08:32:23;17.20;75.00
14095;DHT22;18096;48.142;16.290;2022-09-03T08:34:49;17.30;74.90
14095;DHT22;18096;48.142;16.290;2022-09-03T08:37:16;17.30;74.70
14095;DHT22;18096;48.142;16.290;2022-09-03T08:39:43;17.40;74.80
14095;DHT22;18096;48.142;16.290;2022-09-03T08:42:20;17.50;74.60
14095;DHT22;18096;48.142;16.290;2022-09-03T08:44:53;17.50;74.70
14095;DHT22;18096;48.142;16.290;2022-09-03T08:47:29;17.60;74.90
14095;DHT22;18096;48.142;16.290;2022-09-03T08:55:21;17.80;74.80
14095;DHT22;18096;48.142;16.290;2022-09-03T08:57:50;17.90;74.90
14095;DHT22;18096;48.142;16.290;2022-09-03T09:00:17;17.90;75.30
14095;DHT22;18096;48.142;16.290;2022-09-03T09:02:49;18.00;75.40
14095;DHT22;18096;48.142;16.290;2022-09-03T09:05:23;18.10;75.60
14095;DHT22;18096;48.142;16.290;2022-09-03T09:07:55;18.20;75.10
14095;DHT22;18096;48.142;16.290;2022-09-03T09:10:36;18.20;74.60
14095;DHT22;18096;48.142;16.290;2022-09-03T09:13:31;18.30;74.60
14095;DHT22;18096;48.142;16.290;2022-09-03T09:21:31;18.60;74.10
14095;DHT22;18096;48.142;16.290;2022-09-03T09:24:05;18.60;74.60
14095;DHT22;18096;48.142;16.290;2022-09-03T09:26:32;18.70;74.60
14095;DHT22;18096;48.142;16.290;2022-09-03T09:29:06;18.70;74.70
14095;DHT22;18096;48.142;16.290;2022-09-03T09:31:34;18.70;74.00
14095;DHT22;18096;48.142;16.290;2022-09-03T09:34:07;18.80;73.80
14095;DHT22;18096;48.142;16.290;2022-09-03T09:36:50;18.80;73.80
14095;DHT22;18096;48.142;16.290;2022-09-03T09:39:17;18.90;73.40
14095;DHT22;18096;48.142;16.290;2022-09-03T09:42:09;18.90;73.50
14095;DHT22;18096;48.142;16.290;2022-09-03T09:44:40;19.00;73.70
14095;DHT22;18096;48.142;16.290;2022-09-03T09:47:21;19.00;73.70
14095;DHT22;18096;48.142;16.290;2022-09-03T09:49:55;19.10;73.00
14095;DHT22;18096;48.142;16.290;2022-09-03T09:52:24;19.20;73.40
14095;DHT22;18096;48.142;16.290;2022-09-03T09:55:04;19.20;74.00
14095;DHT22;18096;48.142;16.290;2022-09-03T09:57:35;19.30;74.20
14095;DHT22;18096;48.142;16.290;2022-09-03T10:00:13;19.50;74.10
14095;DHT22;18096;48.142;16.290;2022-09-03T10:02:49;19.40;72.70
14095;DHT22;18096;48.142;16.290;2022-09-03T10:05:25;19.40;72.60
14095;DHT22;18096;48.142;16.290;2022-09-03T10:07:56;19.50;72.70
14095;DHT22;18096;48.142;16.290;2022-09-03T10:10:22;19.60;73.00
14095;DHT22;18096;48.142;16.290;2022-09-03T10:13:05;19.60;72.70
14095;DHT22;18096;48.142;16.290;2022-09-03T10:15:50;19.70;73.00
14095;DHT22;18096;48.142;16.290;2022-09-03T10:18:37;19.70;73.30
14095;DHT22;18096;48.142;16.290;2022-09-03T10:26:41;19.80;73.40
14095;DHT22;18096;48.142;16.290;2022-09-03T10:29:11;19.90;72.10
14095;DHT22;18096;48.142;16.290;2022-09-03T10:42:47;20.30;71.20
14095;DHT22;18096;48.142;16.290;2022-09-03T10:45:32;20.40;71.70
14095;DHT22;18096;48.142;16.290;2022-09-03T10:48:10;20.40;72.30
14095;DHT22;18096;48.142;16.290;2022-09-03T10:50:58;20.40;71.70
14095;DHT22;18096;48.142;16.290;2022-09-03T11:04:59;20.70;70.00
14095;DHT22;18096;48.142;16.290;2022-09-03T11:07:41;20.80;69.50
14095;DHT22;18096;48.142;16.290;2022-09-03T11:13:13;20.90;69.60
14095;DHT22;18096;48.142;16.290;2022-09-03T11:16:02;21.00;69.90
14095;DHT22;18096;48.142;16.290;2022-09-03T11:21:12;21.10;68.10
14095;DHT22;18096;48.142;16.290;2022-09-03T11:23:51;21.30;67.90
14095;DHT22;18096;48.142;16.290;2022-09-03T11:26:19;21.40;67.90
14095;DHT22;18096;48.142;16.290;2022-09-03T11:29:10;21.60;67.60
14095;DHT22;18096;48.142;16.290;2022-09-03T11:31:52;21.60;67.50
14095;DHT22;18096;48.142;16.290;2022-09-03T11:34:31;21.60;67.50
14095;DHT22;18096;48.142;16.290;2022-09-03T11:39:42;21.70;67.80
14095;DHT22;18096;48.142;16.290;2022-09-03T11:42:19;21.80;67.40
14095;DHT22;18096;48.142;16.290;2022-09-03T11:44:50;21.80;68.10
14095;DHT22;18096;48.142;16.290;2022-09-03T11:50:08;21.80;66.90
14095;DHT22;18096;48.142;16.290;2022-09-03T11:52:41;21.80;66.50
14095;DHT22;18096;48.142;16.290;2022-09-03T11:55:07;21.80;66.70
14095;DHT22;18096;48.142;16.290;2022-09-03T11:57:40;21.90;65.60
14095;DHT22;18096;48.142;16.290;2022-09-03T12:00:13;21.90;65.90
14095;DHT22;18096;48.142;16.290;2022-09-03T12:02:53;21.90;66.90
14095;DHT22;18096;48.142;16.290;2022-09-03T12:05:42;21.90;65.90
14095;DHT22;18096;48.142;16.290;2022-09-03T12:11:43;22.00;65.50
14095;DHT22;18096;48.142;16.290;2022-09-03T12:17:41;22.10;66.30
14095;DHT22;18096;48.142;16.290;2022-09-03T12:20:14;22.10;64.30
14095;DHT22;18096;48.142;16.290;2022-09-03T12:22:40;22.30;64.00
14095;DHT22;18096;48.142;16.290;2022-09-03T12:25:08;22.30;64.60
14095;DHT22;18096;48.142;16.290;2022-09-03T12:27:35;22.40;65.20
14095;DHT22;18096;48.142;16.290;2022-09-03T12:30:03;22.40;63.30
14095;DHT22;18096;48.142;16.290;2022-09-03T12:32:34;22.50;64.30
14095;DHT22;18096;48.142;16.290;2022-09-03T12:35:11;22.40;64.00
14095;DHT22;18096;48.142;16.290;2022-09-03T12:37:37;22.50;63.30
14095;DHT22;18096;48.142;16.290;2022-09-03T12:40:04;22.50;63.30
14095;DHT22;18096;48.142;16.290;2022-09-03T12:42:30;22.60;63.40
14095;DHT22;18096;48.142;16.290;2022-09-03T12:45:07;22.60;63.30
14095;DHT22;18096;48.142;16.290;2022-09-03T12:47:41;22.60;63.30
14095;DHT22;18096;48.142;16.290;2022-09-03T12:50:16;22.70;62.30
14095;DHT22;18096;48.142;16.290;2022-09-03T12:52:55;22.70;62.20
14095;DHT22;18096;48.142;16.290;2022-09-03T12:55:39;22.70;61.80
14095;DHT22;18096;48.142;16.290;2022-09-03T13:01:06;22.90;61.40
14095;DHT22;18096;48.142;16.290;2022-09-03T13:04:04;22.90;61.00
14095;DHT22;18096;48.142;16.290;2022-09-03T13:09:09;22.90;62.40
14095;DHT22;18096;48.142;16.290;2022-09-03T13:11:38;22.90;61.80
14095;DHT22;18096;48.142;16.290;2022-09-03T13:14:05;22.90;61.20
14095;DHT22;18096;48.142;16.290;2022-09-03T13:24:51;23.00;61.00
14095;DHT22;18096;48.142;16.290;2022-09-03T13:30:19;23.00;61.40
14095;DHT22;18096;48.142;16.290;2022-09-03T13:35:48;23.10;61.40
14095;DHT22;18096;48.142;16.290;2022-09-03T13:44:19;23.20;61.00
14095;DHT22;18096;48.142;16.290;2022-09-03T13:46:56;23.20;60.30
14095;DHT22;18096;48.142;16.290;2022-09-03T13:52:18;23.30;60.20
14095;DHT22;18096;48.142;16.290;2022-09-03T13:54:52;23.30;60.30
14095;DHT22;18096;48.142;16.290;2022-09-03T13:57:25;23.30;60.30
14095;DHT22;18096;48.142;16.290;2022-09-03T14:00:05;23.30;60.20
14095;DHT22;18096;48.142;16.290;2022-09-03T14:05:42;23.50;60.30
14095;DHT22;18096;48.142;16.290;2022-09-03T14:14:39;23.60;60.00
14095;DHT22;18096;48.142;16.290;2022-09-03T14:22:32;23.70;60.50
14095;DHT22;18096;48.142;16.290;2022-09-03T14:25:10;23.60;60.70
14095;DHT22;18096;48.142;16.290;2022-09-03T14:27:38;23.60;61.50
14095;DHT22;18096;48.142;16.290;2022-09-03T14:30:16;23.60;61.60
14095;DHT22;18096;48.142;16.290;2022-09-03T14:41:34;23.40;61.90
14095;DHT22;18096;48.142;16.290;2022-09-03T14:47:28;23.50;61.30
14095;DHT22;18096;48.142;16.290;2022-09-03T14:50:12;23.50;61.50
14095;DHT22;18096;48.142;16.290;2022-09-03T15:00:54;23.40;61.20
14095;DHT22;18096;48.142;16.290;2022-09-03T15:09:12;23.30;61.90
14095;DHT22;18096;48.142;16.290;2022-09-03T15:11:54;23.30;61.80
14095;DHT22;18096;48.142;16.290;2022-09-03T15:14:34;23.30;61.60
14095;DHT22;18096;48.142;16.290;2022-09-03T15:26:11;23.30;61.50
14095;DHT22;18096;48.142;16.290;2022-09-03T15:28:45;23.30;61.20
14095;DHT22;18096;48.142;16.290;2022-09-03T15:37:18;23.30;61.90
14095;DHT22;18096;48.142;16.290;2022-09-03T15:40:10;23.30;62.10
14095;DHT22;18096;48.142;16.290;2022-09-03T15:42:41;23.30;61.50
14095;DHT22;18096;48.142;16.290;2022-09-03T15:48:27;23.30;61.40
14095;DHT22;18096;48.142;16.290;2022-09-03T15:53:54;23.30;61.60
14095;DHT22;18096;48.142;16.290;2022-09-03T15:59:34;23.20;61.70
14095;DHT22;18096;48.142;16.290;2022-09-03T16:02:14;23.20;62.00
14095;DHT22;18096;48.142;16.290;2022-09-03T16:05:06;23.20;61.70
14095;DHT22;18096;48.142;16.290;2022-09-03T16:13:48;23.10;62.30
14095;DHT22;18096;48.142;16.290;2022-09-03T16:20:13;23.00;62.30
14095;DHT22;18096;48.142;16.290;2022-09-03T16:25:17;22.90;62.70
14095;DHT22;18096;48.142;16.290;2022-09-03T16:44:22;22.60;64.00
14095;DHT22;18096;48.142;16.290;2022-09-03T16:46:59;22.50;64.00
14095;DHT22;18096;48.142;16.290;2022-09-03T17:03:20;22.30;64.50
14095;DHT22;18096;48.142;16.290;2022-09-03T17:06:05;22.30;64.90
14095;DHT22;18096;48.142;16.290;2022-09-03T17:11:33;22.20;65.00
14095;DHT22;18096;48.142;16.290;2022-09-03T17:19:28;22.10;65.00
14095;DHT22;18096;48.142;16.290;2022-09-03T17:24:45;22.00;65.30
14095;DHT22;18096;48.142;16.290;2022-09-03T17:30:07;22.00;65.40
14095;DHT22;18096;48.142;16.290;2022-09-03T17:36:01;21.90;65.30
14095;DHT22;18096;48.142;16.290;2022-09-03T17:41:50;21.90;65.60
14095;DHT22;18096;48.142;16.290;2022-09-03T17:44:42;21.80;65.70
14095;DHT22;18096;48.142;16.290;2022-09-03T17:47:32;21.80;65.90
14095;DHT22;18096;48.142;16.290;2022-09-03T17:50:42;21.80;66.00
14095;DHT22;18096;48.142;16.290;2022-09-03T17:53:20;21.70;66.00
14095;DHT22;18096;48.142;16.290;2022-09-03T17:55:59;21.70;66.00
14095;DHT22;18096;48.142;16.290;2022-09-03T17:58:36;21.70;66.00
14095;DHT22;18096;48.142;16.290;2022-09-03T18:03:48;21.60;66.10
14095;DHT22;18096;48.142;16.290;2022-09-03T18:08:56;21.60;66.30
14095;DHT22;18096;48.142;16.290;2022-09-03T18:11:38;21.60;66.40
14095;DHT22;18096;48.142;16.290;2022-09-03T18:19:43;21.50;66.60
14095;DHT22;18096;48.142;16.290;2022-09-03T18:22:43;21.40;66.80
14095;DHT22;18096;48.142;16.290;2022-09-03T18:25:31;21.40;67.10
14095;DHT22;18096;48.142;16.290;2022-09-03T18:28:18;21.30;67.40
14095;DHT22;18096;48.142;16.290;2022-09-03T18:31:11;21.30;67.80
14095;DHT22;18096;48.142;16.290;2022-09-03T18:33:56;21.30;67.90
14095;DHT22;18096;48.142;16.290;2022-09-03T18:36:40;21.20;68.00
14095;DHT22;18096;48.142;16.290;2022-09-03T18:39:27;21.20;68.60
14095;DHT22;18096;48.142;16.290;2022-09-03T18:45:45;21.20;69.00
14095;DHT22;18096;48.142;16.290;2022-09-03T18:49:08;21.10;69.30
14095;DHT22;18096;48.142;16.290;2022-09-03T19:10:27;20.90;71.80
14095;DHT22;18096;48.142;16.290;2022-09-03T19:19:42;20.90;72.40
14095;DHT22;18096;48.142;16.290;2022-09-03T19:22:35;20.80;72.40
14095;DHT22;18096;48.142;16.290;2022-09-03T19:25:19;20.70;72.60
14095;DHT22;18096;48.142;16.290;2022-09-03T19:28:17;20.70;73.00
14095;DHT22;18096;48.142;16.290;2022-09-03T19:31:23;20.70;73.20
14095;DHT22;18096;48.142;16.290;2022-09-03T19:34:22;20.60;73.40
14095;DHT22;18096;48.142;16.290;2022-09-03T19:40:51;20.50;73.90
14095;DHT22;18096;48.142;16.290;2022-09-03T19:47:00;20.30;74.30
14095;DHT22;18096;48.142;16.290;2022-09-03T19:50:34;20.30;74.60
14095;DHT22;18096;48.142;16.290;2022-09-03T19:53:18;20.20;74.90
14095;DHT22;18096;48.142;16.290;2022-09-03T19:56:28;20.20;75.20
14095;DHT22;18096;48.142;16.290;2022-09-03T19:59:19;20.10;75.50
14095;DHT22;18096;48.142;16.290;2022-09-03T20:02:04;20.10;75.60
14095;DHT22;18096;48.142;16.290;2022-09-03T20:04:57;20.00;75.80
14095;DHT22;18096;48.142;16.290;2022-09-03T20:07:44;20.00;75.90
14095;DHT22;18096;48.142;16.290;2022-09-03T20:10:29;20.00;76.10
14095;DHT22;18096;48.142;16.290;2022-09-03T20:16:18;19.90;76.50
14095;DHT22;18096;48.142;16.290;2022-09-03T20:21:35;19.80;77.00
14095;DHT22;18096;48.142;16.290;2022-09-03T20:27:05;19.70;77.20
14095;DHT22;18096;48.142;16.290;2022-09-03T20:30:10;19.70;77.30
14095;DHT22;18096;48.142;16.290;2022-09-03T20:48:39;19.40;78.80
14095;DHT22;18096;48.142;16.290;2022-09-03T20:51:10;19.40;79.00
14095;DHT22;18096;48.142;16.290;2022-09-03T20:58:47;19.30;79.30
14095;DHT22;18096;48.142;16.290;2022-09-03T21:07:40;19.20;79.80
14095;DHT22;18096;48.142;16.290;2022-09-03T21:18:18;19.00;80.30
14095;DHT22;18096;48.142;16.290;2022-09-03T21:21:05;19.00;80.50
14095;DHT22;18096;48.142;16.290;2022-09-03T21:23:42;19.00;80.60
14095;DHT22;18096;48.142;16.290;2022-09-03T21:26:10;19.00;80.60
14095;DHT22;18096;48.142;16.290;2022-09-03T21:28:42;19.00;80.80
14095;DHT22;18096;48.142;16.290;2022-09-03T21:31:23;19.00;80.90
14095;DHT22;18096;48.142;16.290;2022-09-03T21:33:56;19.00;80.90
14095;DHT22;18096;48.142;16.290;2022-09-03T21:36:30;19.00;81.00
14095;DHT22;18096;48.142;16.290;2022-09-03T21:39:20;18.90;81.00
14095;DHT22;18096;48.142;16.290;2022-09-03T21:44:41;18.90;81.30
14095;DHT22;18096;48.142;16.290;2022-09-03T21:47:16;18.90;81.40
14095;DHT22;18096;48.142;16.290;2022-09-03T21:50:04;18.90;81.60
14095;DHT22;18096;48.142;16.290;2022-09-03T21:58:14;18.90;81.80
14095;DHT22;18096;48.142;16.290;2022-09-03T22:00:45;18.90;81.70